Aeroporto :
LOGIN :

Iscrizione | Disclaimer

   EN    FR    IT 

 










Sommario :    VFR   VFR Marginale   IFR   IFR Intensivo   IFR Molto Intensivo
Visibilità : 
Base nubi : 
>= 8 km
>= 3000ft
5 / 8 km
1000 / 3000 ft
1500m / 5 km
500 / 1000 ft
800 / 1500m
200 / 500 ft
< 800m
< 200 ft
Simboli :   Temporali  Nebbia  Neve Forte  Precipitazioni Forti  Vento > 20 kt
SIGMETs :   Varie  Temporali  Ghiacco  Turbolenza  Onda orograficha  Ceneri Vulcaniche






- Altitudine del aeroporto : 479 ft
- Codice IATA : DOL


LFRG - Deauville

ULTIMO METAR :
  • 071030Z AUTO 29007KT 250V340 9999 BKN017 BKN024 15/10 Q1010 TEMPO SHRA SCT015CB

METARs OBSOLETI :
  • 071000Z AUTO 29008KT 260V330 9999 BKN018 BKN026 BKN032 14/10 Q1010 TEMPO SHRA BKN013TCU
  • 070930Z AUTO 30007KT 250V360 9999 BKN017 BKN026 BKN031 14/10 Q1010 TEMPO SHRA BKN013TCU
  • 070900Z AUTO 29008KT 240V310 9999 BKN015 BKN022 BKN028 13/10 Q1010 TEMPO SHRA BKN013TCU
  • 070830Z AUTO 30007KT 260V340 9999 BKN015 BKN020 13/10 Q1009 TEMPO SHRA BKN013TCU
  • 070800Z AUTO 30006KT 260V010 9999 BKN016 BKN023 13/11 Q1009 TEMPO SHRA BKN004

TAF TAF LFRG
Valido dal 07 a 09 ore il 07 a 18 ore UTC


070800Z 0709/0718 29010KT 9999 BKN020
TEMPO 0709/0715 5000 SHRA BKN013TCU
BECMG 0712/0715 33010KT
PROB30
TEMPO 0712/0715 5000 SHRA SCT015CB
ATIS : +33 2 31 65 65 36



MetMap, La meteo Aeronautica in un colpo d'occhio ! - Copyright ORBIFLY Dicembre 2007 - Disclaimer

ORBIFLY MET'MAP TEAM :

Programmazione e sviluppo : Alexandra Zaïnal
Concezione : Baudouin d'Aumeries
Aiuto per la programmazione : Marc-Olivier Méhu
Supporto tecnico e logistico : Manuel Goepfert
Aiuto per la traduzione : Arnaldo La Scala

Contatto : metmap@orbifly.com




FONTI E CREDITI :

   NOAA